sensor_id;sensor_type;location;lat;lon;timestamp;temperature;humidity
51613;DHT22;37694;51.748;14.326;2023-03-23T00:01:26;24.40;41.90
51613;DHT22;37694;51.748;14.326;2023-03-23T00:03:55;24.40;41.90
51613;DHT22;37694;51.748;14.326;2023-03-23T00:06:26;24.40;42.00
51613;DHT22;37694;51.748;14.326;2023-03-23T00:08:54;24.40;41.90
51613;DHT22;37694;51.748;14.326;2023-03-23T00:11:27;24.40;41.90
51613;DHT22;37694;51.748;14.326;2023-03-23T00:13:58;24.40;41.90
51613;DHT22;37694;51.748;14.326;2023-03-23T00:16:31;24.40;41.90
51613;DHT22;37694;51.748;14.326;2023-03-23T00:19:23;24.30;41.90
51613;DHT22;37694;51.748;14.326;2023-03-23T00:21:49;24.40;41.80
51613;DHT22;37694;51.748;14.326;2023-03-23T00:24:18;24.30;41.90
51613;DHT22;37694;51.748;14.326;2023-03-23T00:26:46;24.30;41.90
51613;DHT22;37694;51.748;14.326;2023-03-23T00:29:18;24.30;41.80
51613;DHT22;37694;51.748;14.326;2023-03-23T00:31:44;24.30;41.80
51613;DHT22;37694;51.748;14.326;2023-03-23T00:34:12;24.30;41.80
51613;DHT22;37694;51.748;14.326;2023-03-23T00:39:59;24.30;41.80
51613;DHT22;37694;51.748;14.326;2023-03-23T00:42:25;24.20;41.90
51613;DHT22;37694;51.748;14.326;2023-03-23T00:44:51;24.30;42.00
51613;DHT22;37694;51.748;14.326;2023-03-23T00:47:25;24.20;41.90
51613;DHT22;37694;51.748;14.326;2023-03-23T00:49:51;24.30;42.00
51613;DHT22;37694;51.748;14.326;2023-03-23T00:52:18;24.20;41.90
51613;DHT22;37694;51.748;14.326;2023-03-23T00:54:43;24.20;41.90
51613;DHT22;37694;51.748;14.326;2023-03-23T00:57:09;24.20;41.90
51613;DHT22;37694;51.748;14.326;2023-03-23T00:59:35;24.20;41.80
51613;DHT22;37694;51.748;14.326;2023-03-23T01:02:01;24.20;42.70
51613;DHT22;37694;51.748;14.326;2023-03-23T01:04:27;24.20;41.90
51613;DHT22;37694;51.748;14.326;2023-03-23T01:06:53;24.20;41.90
51613;DHT22;37694;51.748;14.326;2023-03-23T01:09:20;24.20;41.90
51613;DHT22;37694;51.748;14.326;2023-03-23T01:11:48;24.20;41.90
51613;DHT22;37694;51.748;14.326;2023-03-23T01:14:16;24.20;41.90
51613;DHT22;37694;51.748;14.326;2023-03-23T01:16:42;24.20;41.90
51613;DHT22;37694;51.748;14.326;2023-03-23T01:19:08;24.10;41.80
51613;DHT22;37694;51.748;14.326;2023-03-23T01:21:34;24.10;41.80
51613;DHT22;37694;51.748;14.326;2023-03-23T01:24:00;24.10;41.80
51613;DHT22;37694;51.748;14.326;2023-03-23T01:26:28;24.10;41.80
51613;DHT22;37694;51.748;14.326;2023-03-23T01:28:54;24.10;41.80
51613;DHT22;37694;51.748;14.326;2023-03-23T01:31:23;24.10;41.80
51613;DHT22;37694;51.748;14.326;2023-03-23T01:33:49;24.10;41.80
51613;DHT22;37694;51.748;14.326;2023-03-23T01:36:29;24.10;41.80
51613;DHT22;37694;51.748;14.326;2023-03-23T01:38:59;24.10;41.80
51613;DHT22;37694;51.748;14.326;2023-03-23T01:41:26;24.10;41.80
51613;DHT22;37694;51.748;14.326;2023-03-23T01:46:29;24.10;42.00
51613;DHT22;37694;51.748;14.326;2023-03-23T01:48:57;24.10;41.80
51613;DHT22;37694;51.748;14.326;2023-03-23T01:51:24;24.10;41.80
51613;DHT22;37694;51.748;14.326;2023-03-23T01:53:55;24.10;41.80
51613;DHT22;37694;51.748;14.326;2023-03-23T01:56:25;24.10;41.80
51613;DHT22;37694;51.748;14.326;2023-03-23T01:58:55;24.10;41.80
51613;DHT22;37694;51.748;14.326;2023-03-23T02:01:22;24.10;41.80
51613;DHT22;37694;51.748;14.326;2023-03-23T02:03:52;24.10;41.80
51613;DHT22;37694;51.748;14.326;2023-03-23T02:06:18;24.10;41.80
51613;DHT22;37694;51.748;14.326;2023-03-23T02:08:44;24.10;41.80
51613;DHT22;37694;51.748;14.326;2023-03-23T02:11:20;24.10;41.80
51613;DHT22;37694;51.748;14.326;2023-03-23T02:13:47;24.10;42.70
51613;DHT22;37694;51.748;14.326;2023-03-23T02:35:03;24.00;41.80
51613;DHT22;37694;51.748;14.326;2023-03-23T02:37:37;24.00;41.80
51613;DHT22;37694;51.748;14.326;2023-03-23T02:40:12;24.00;41.90
51613;DHT22;37694;51.748;14.326;2023-03-23T02:42:41;23.90;41.80
51613;DHT22;37694;51.748;14.326;2023-03-23T02:45:10;23.90;41.80
51613;DHT22;37694;51.748;14.326;2023-03-23T02:47:38;23.90;41.80
51613;DHT22;37694;51.748;14.326;2023-03-23T02:50:09;23.90;42.70
51613;DHT22;37694;51.748;14.326;2023-03-23T02:52:37;23.90;41.80
51613;DHT22;37694;51.748;14.326;2023-03-23T02:55:04;23.90;41.80
51613;DHT22;37694;51.748;14.326;2023-03-23T02:57:31;23.90;41.90
51613;DHT22;37694;51.748;14.326;2023-03-23T02:59:57;23.90;41.90
51613;DHT22;37694;51.748;14.326;2023-03-23T03:02:26;23.90;42.00
51613;DHT22;37694;51.748;14.326;2023-03-23T03:05:02;23.90;41.90
51613;DHT22;37694;51.748;14.326;2023-03-23T03:07:52;23.90;41.90
51613;DHT22;37694;51.748;14.326;2023-03-23T03:10:35;23.90;41.90
51613;DHT22;37694;51.748;14.326;2023-03-23T03:13:10;23.90;42.00
51613;DHT22;37694;51.748;14.326;2023-03-23T03:20:58;23.90;42.10
51613;DHT22;37694;51.748;14.326;2023-03-23T03:23:26;23.90;42.10
51613;DHT22;37694;51.748;14.326;2023-03-23T03:25:53;23.80;42.00
51613;DHT22;37694;51.748;14.326;2023-03-23T03:28:23;23.80;42.00
51613;DHT22;37694;51.748;14.326;2023-03-23T03:30:55;23.80;42.10
51613;DHT22;37694;51.748;14.326;2023-03-23T03:33:22;23.80;42.10
51613;DHT22;37694;51.748;14.326;2023-03-23T03:35:53;23.80;42.10
51613;DHT22;37694;51.748;14.326;2023-03-23T03:38:20;23.80;42.10
51613;DHT22;37694;51.748;14.326;2023-03-23T03:40:46;23.80;42.10
51613;DHT22;37694;51.748;14.326;2023-03-23T03:43:11;23.80;42.30
51613;DHT22;37694;51.748;14.326;2023-03-23T03:45:37;23.80;42.10
51613;DHT22;37694;51.748;14.326;2023-03-23T03:48:03;23.80;42.10
51613;DHT22;37694;51.748;14.326;2023-03-23T03:50:29;23.80;42.10
51613;DHT22;37694;51.748;14.326;2023-03-23T03:52:55;23.80;42.00
51613;DHT22;37694;51.748;14.326;2023-03-23T03:55:21;23.80;42.00
51613;DHT22;37694;51.748;14.326;2023-03-23T03:57:47;23.80;42.10
51613;DHT22;37694;51.748;14.326;2023-03-23T04:00:13;23.80;42.00
51613;DHT22;37694;51.748;14.326;2023-03-23T04:02:45;23.80;42.00
51613;DHT22;37694;51.748;14.326;2023-03-23T04:05:16;23.80;42.00
51613;DHT22;37694;51.748;14.326;2023-03-23T04:07:42;23.80;42.00
51613;DHT22;37694;51.748;14.326;2023-03-23T04:10:10;23.70;41.90
51613;DHT22;37694;51.748;14.326;2023-03-23T04:12:38;23.80;41.90
51613;DHT22;37694;51.748;14.326;2023-03-23T04:15:05;23.70;41.90
51613;DHT22;37694;51.748;14.326;2023-03-23T04:17:31;23.70;41.80
51613;DHT22;37694;51.748;14.326;2023-03-23T04:19:57;23.80;42.00
51613;DHT22;37694;51.748;14.326;2023-03-23T04:22:26;23.70;41.80
51613;DHT22;37694;51.748;14.326;2023-03-23T04:24:59;23.70;41.90
51613;DHT22;37694;51.748;14.326;2023-03-23T04:27:26;23.70;41.80
51613;DHT22;37694;51.748;14.326;2023-03-23T04:29:57;23.70;41.80
51613;DHT22;37694;51.748;14.326;2023-03-23T04:32:25;23.70;41.90
51613;DHT22;37694;51.748;14.326;2023-03-23T04:34:55;23.70;41.80
51613;DHT22;37694;51.748;14.326;2023-03-23T04:37:21;23.70;41.90
51613;DHT22;37694;51.748;14.326;2023-03-23T04:39:51;23.70;41.90
51613;DHT22;37694;51.748;14.326;2023-03-23T04:42:28;23.70;41.90
51613;DHT22;37694;51.748;14.326;2023-03-23T04:44:56;23.70;41.90
51613;DHT22;37694;51.748;14.326;2023-03-23T04:47:23;23.70;41.90
51613;DHT22;37694;51.748;14.326;2023-03-23T04:49:49;23.70;41.80
51613;DHT22;37694;51.748;14.326;2023-03-23T04:52:16;23.70;41.90
51613;DHT22;37694;51.748;14.326;2023-03-23T04:54:42;23.70;41.80
51613;DHT22;37694;51.748;14.326;2023-03-23T04:57:08;23.70;42.00
51613;DHT22;37694;51.748;14.326;2023-03-23T04:59:34;23.60;41.80
51613;DHT22;37694;51.748;14.326;2023-03-23T05:01:59;23.60;41.80
51613;DHT22;37694;51.748;14.326;2023-03-23T05:04:25;23.60;41.90
51613;DHT22;37694;51.748;14.326;2023-03-23T05:06:52;23.60;41.80
51613;DHT22;37694;51.748;14.326;2023-03-23T05:09:18;23.60;41.90
51613;DHT22;37694;51.748;14.326;2023-03-23T05:11:45;23.60;41.90
51613;DHT22;37694;51.748;14.326;2023-03-23T05:14:10;23.60;41.90
51613;DHT22;37694;51.748;14.326;2023-03-23T05:16:36;23.60;41.90
51613;DHT22;37694;51.748;14.326;2023-03-23T05:19:04;23.60;42.00
51613;DHT22;37694;51.748;14.326;2023-03-23T05:21:30;23.60;42.10
51613;DHT22;37694;51.748;14.326;2023-03-23T05:23:56;23.60;42.20
51613;DHT22;37694;51.748;14.326;2023-03-23T05:26:26;23.60;42.10
51613;DHT22;37694;51.748;14.326;2023-03-23T05:28:55;23.60;42.10
51613;DHT22;37694;51.748;14.326;2023-03-23T05:31:21;23.60;42.10
51613;DHT22;37694;51.748;14.326;2023-03-23T05:33:48;23.60;42.20
51613;DHT22;37694;51.748;14.326;2023-03-23T05:36:14;23.50;42.10
51613;DHT22;37694;51.748;14.326;2023-03-23T05:38:40;23.60;42.20
51613;DHT22;37694;51.748;14.326;2023-03-23T05:41:11;23.50;42.10
51613;DHT22;37694;51.748;14.326;2023-03-23T05:43:36;23.60;42.20
51613;DHT22;37694;51.748;14.326;2023-03-23T05:46:02;23.60;42.30
51613;DHT22;37694;51.748;14.326;2023-03-23T05:48:28;23.50;42.20
51613;DHT22;37694;51.748;14.326;2023-03-23T05:50:54;23.50;42.20
51613;DHT22;37694;51.748;14.326;2023-03-23T05:53:20;23.50;42.30
51613;DHT22;37694;51.748;14.326;2023-03-23T05:55:46;23.50;42.30
51613;DHT22;37694;51.748;14.326;2023-03-23T05:58:12;23.50;42.40
51613;DHT22;37694;51.748;14.326;2023-03-23T06:00:38;23.50;42.40
51613;DHT22;37694;51.748;14.326;2023-03-23T06:03:04;23.50;42.30
51613;DHT22;37694;51.748;14.326;2023-03-23T06:05:31;23.50;42.30
51613;DHT22;37694;51.748;14.326;2023-03-23T06:07:58;23.50;42.30
51613;DHT22;37694;51.748;14.326;2023-03-23T06:10:24;23.50;42.40
51613;DHT22;37694;51.748;14.326;2023-03-23T06:12:50;23.50;42.40
51613;DHT22;37694;51.748;14.326;2023-03-23T06:15:19;23.50;42.50
51613;DHT22;37694;51.748;14.326;2023-03-23T06:17:45;23.50;42.50
51613;DHT22;37694;51.748;14.326;2023-03-23T06:20:11;23.50;42.60
51613;DHT22;37694;51.748;14.326;2023-03-23T06:22:38;23.50;42.50
51613;DHT22;37694;51.748;14.326;2023-03-23T06:25:09;23.50;42.80
51613;DHT22;37694;51.748;14.326;2023-03-23T06:27:36;23.50;42.60
51613;DHT22;37694;51.748;14.326;2023-03-23T06:30:03;23.50;43.20
51613;DHT22;37694;51.748;14.326;2023-03-23T06:32:30;23.60;43.10
51613;DHT22;37694;51.748;14.326;2023-03-23T06:34:57;23.60;43.00
51613;DHT22;37694;51.748;14.326;2023-03-23T06:37:23;23.60;43.20
51613;DHT22;37694;51.748;14.326;2023-03-23T06:39:50;23.60;43.10
51613;DHT22;37694;51.748;14.326;2023-03-23T06:42:17;23.60;43.40
51613;DHT22;37694;51.748;14.326;2023-03-23T06:44:43;23.60;43.20
51613;DHT22;37694;51.748;14.326;2023-03-23T06:47:09;23.70;43.10
51613;DHT22;37694;51.748;14.326;2023-03-23T06:49:34;23.70;43.10
51613;DHT22;37694;51.748;14.326;2023-03-23T06:52:00;23.70;43.00
51613;DHT22;37694;51.748;14.326;2023-03-23T06:54:28;23.70;42.70
51613;DHT22;37694;51.748;14.326;2023-03-23T06:56:54;23.70;42.60
51613;DHT22;37694;51.748;14.326;2023-03-23T06:59:19;23.70;42.40
51613;DHT22;37694;51.748;14.326;2023-03-23T07:01:45;23.70;42.90
51613;DHT22;37694;51.748;14.326;2023-03-23T07:04:12;23.70;42.40
51613;DHT22;37694;51.748;14.326;2023-03-23T07:06:38;23.70;43.40
51613;DHT22;37694;51.748;14.326;2023-03-23T07:09:04;23.70;42.40
51613;DHT22;37694;51.748;14.326;2023-03-23T07:11:30;23.70;42.60
51613;DHT22;37694;51.748;14.326;2023-03-23T07:13:55;23.70;43.00
51613;DHT22;37694;51.748;14.326;2023-03-23T07:16:21;23.70;43.00
51613;DHT22;37694;51.748;14.326;2023-03-23T07:18:47;23.70;43.10
51613;DHT22;37694;51.748;14.326;2023-03-23T07:21:14;23.70;43.50
51613;DHT22;37694;51.748;14.326;2023-03-23T07:23:39;23.70;43.40
51613;DHT22;37694;51.748;14.326;2023-03-23T07:26:06;23.70;43.40
51613;DHT22;37694;51.748;14.326;2023-03-23T07:28:32;23.70;43.90
51613;DHT22;37694;51.748;14.326;2023-03-23T07:30:57;23.70;43.80
51613;DHT22;37694;51.748;14.326;2023-03-23T07:33:23;23.80;43.50
51613;DHT22;37694;51.748;14.326;2023-03-23T07:35:49;23.80;43.40
51613;DHT22;37694;51.748;14.326;2023-03-23T07:38:14;23.70;43.20
51613;DHT22;37694;51.748;14.326;2023-03-23T07:40:40;23.80;43.40
51613;DHT22;37694;51.748;14.326;2023-03-23T07:43:06;23.80;43.10
51613;DHT22;37694;51.748;14.326;2023-03-23T07:45:32;23.80;43.40
51613;DHT22;37694;51.748;14.326;2023-03-23T07:47:59;23.80;43.70
51613;DHT22;37694;51.748;14.326;2023-03-23T07:50:26;23.80;43.60
51613;DHT22;37694;51.748;14.326;2023-03-23T07:52:54;23.80;43.50
51613;DHT22;37694;51.748;14.326;2023-03-23T07:55:20;23.80;43.60
51613;DHT22;37694;51.748;14.326;2023-03-23T07:57:49;23.80;43.40
51613;DHT22;37694;51.748;14.326;2023-03-23T08:00:16;23.80;43.60
51613;DHT22;37694;51.748;14.326;2023-03-23T08:02:51;23.80;43.60
51613;DHT22;37694;51.748;14.326;2023-03-23T08:05:17;23.80;43.40
51613;DHT22;37694;51.748;14.326;2023-03-23T08:07:44;23.80;43.40
51613;DHT22;37694;51.748;14.326;2023-03-23T08:10:12;23.80;43.30
51613;DHT22;37694;51.748;14.326;2023-03-23T08:12:41;23.80;43.60
51613;DHT22;37694;51.748;14.326;2023-03-23T08:15:09;23.90;43.40
51613;DHT22;37694;51.748;14.326;2023-03-23T08:17:39;23.90;43.30
51613;DHT22;37694;51.748;14.326;2023-03-23T08:20:06;23.90;43.70
51613;DHT22;37694;51.748;14.326;2023-03-23T08:22:36;23.90;43.70
51613;DHT22;37694;51.748;14.326;2023-03-23T08:25:04;23.90;43.50
51613;DHT22;37694;51.748;14.326;2023-03-23T08:27:31;23.90;43.50
51613;DHT22;37694;51.748;14.326;2023-03-23T08:29:57;23.90;43.50
51613;DHT22;37694;51.748;14.326;2023-03-23T08:32:23;23.90;43.30
51613;DHT22;37694;51.748;14.326;2023-03-23T08:34:49;23.90;43.70
51613;DHT22;37694;51.748;14.326;2023-03-23T08:37:15;23.90;43.70
51613;DHT22;37694;51.748;14.326;2023-03-23T08:39:42;23.90;43.60
51613;DHT22;37694;51.748;14.326;2023-03-23T08:42:11;23.90;43.40
51613;DHT22;37694;51.748;14.326;2023-03-23T08:44:37;23.90;43.30
51613;DHT22;37694;51.748;14.326;2023-03-23T08:47:03;23.90;43.60
51613;DHT22;37694;51.748;14.326;2023-03-23T08:49:31;23.90;43.30
51613;DHT22;37694;51.748;14.326;2023-03-23T08:51:59;23.90;43.70
51613;DHT22;37694;51.748;14.326;2023-03-23T08:54:25;23.90;43.50
51613;DHT22;37694;51.748;14.326;2023-03-23T08:56:51;23.90;43.50
51613;DHT22;37694;51.748;14.326;2023-03-23T08:59:17;23.90;43.30
51613;DHT22;37694;51.748;14.326;2023-03-23T09:01:42;23.90;43.30
51613;DHT22;37694;51.748;14.326;2023-03-23T09:04:08;23.90;43.60
51613;DHT22;37694;51.748;14.326;2023-03-23T09:06:36;23.90;43.60
51613;DHT22;37694;51.748;14.326;2023-03-23T09:09:02;23.90;43.60
51613;DHT22;37694;51.748;14.326;2023-03-23T09:11:33;23.90;43.40
51613;DHT22;37694;51.748;14.326;2023-03-23T09:13:58;23.90;43.40
51613;DHT22;37694;51.748;14.326;2023-03-23T09:16:24;23.90;43.40
51613;DHT22;37694;51.748;14.326;2023-03-23T09:18:50;23.90;43.50
51613;DHT22;37694;51.748;14.326;2023-03-23T09:21:16;23.90;43.70
51613;DHT22;37694;51.748;14.326;2023-03-23T09:23:43;23.90;43.40
51613;DHT22;37694;51.748;14.326;2023-03-23T09:26:10;23.90;43.70
51613;DHT22;37694;51.748;14.326;2023-03-23T09:28:35;23.90;43.90
51613;DHT22;37694;51.748;14.326;2023-03-23T09:31:01;23.90;43.60
51613;DHT22;37694;51.748;14.326;2023-03-23T09:33:27;23.90;43.90
51613;DHT22;37694;51.748;14.326;2023-03-23T09:35:58;23.90;43.60
51613;DHT22;37694;51.748;14.326;2023-03-23T09:38:23;23.90;43.40
51613;DHT22;37694;51.748;14.326;2023-03-23T09:41:10;23.90;43.20
51613;DHT22;37694;51.748;14.326;2023-03-23T09:49:03;24.00;42.90
51613;DHT22;37694;51.748;14.326;2023-03-23T09:54:31;24.00;43.20
51613;DHT22;37694;51.748;14.326;2023-03-23T09:57:00;23.90;43.40
51613;DHT22;37694;51.748;14.326;2023-03-23T10:02:14;23.90;43.70
51613;DHT22;37694;51.748;14.326;2023-03-23T10:04:51;24.00;43.50
51613;DHT22;37694;51.748;14.326;2023-03-23T10:07:25;24.00;43.50
51613;DHT22;37694;51.748;14.326;2023-03-23T10:10:00;23.90;43.20
51613;DHT22;37694;51.748;14.326;2023-03-23T10:12:49;24.00;43.20
51613;DHT22;37694;51.748;14.326;2023-03-23T10:15:27;24.00;43.10
51613;DHT22;37694;51.748;14.326;2023-03-23T10:28:37;24.00;42.70
51613;DHT22;37694;51.748;14.326;2023-03-23T10:31:08;24.00;42.70
51613;DHT22;37694;51.748;14.326;2023-03-23T10:33:47;24.00;42.70
51613;DHT22;37694;51.748;14.326;2023-03-23T10:38:47;24.00;42.60
51613;DHT22;37694;51.748;14.326;2023-03-23T10:41:16;24.00;42.70
51613;DHT22;37694;51.748;14.326;2023-03-23T10:43:44;24.00;42.80
51613;DHT22;37694;51.748;14.326;2023-03-23T10:49:06;24.10;42.60
51613;DHT22;37694;51.748;14.326;2023-03-23T10:51:41;24.10;42.80
51613;DHT22;37694;51.748;14.326;2023-03-23T10:54:07;24.10;42.80
51613;DHT22;37694;51.748;14.326;2023-03-23T10:56:41;24.10;42.90
51613;DHT22;37694;51.748;14.326;2023-03-23T10:59:26;24.10;42.70
51613;DHT22;37694;51.748;14.326;2023-03-23T11:01:55;24.10;42.70
51613;DHT22;37694;51.748;14.326;2023-03-23T11:04:22;24.10;42.90
51613;DHT22;37694;51.748;14.326;2023-03-23T11:06:51;24.20;42.90
51613;DHT22;37694;51.748;14.326;2023-03-23T11:09:36;24.20;42.90
51613;DHT22;37694;51.748;14.326;2023-03-23T11:12:02;24.20;42.80
51613;DHT22;37694;51.748;14.326;2023-03-23T11:14:31;24.20;43.90
51613;DHT22;37694;51.748;14.326;2023-03-23T11:17:03;24.20;43.10
51613;DHT22;37694;51.748;14.326;2023-03-23T11:19:31;24.20;43.30
51613;DHT22;37694;51.748;14.326;2023-03-23T11:22:08;24.20;43.10
51613;DHT22;37694;51.748;14.326;2023-03-23T11:24:41;24.20;43.20
51613;DHT22;37694;51.748;14.326;2023-03-23T11:27:09;24.20;42.80
51613;DHT22;37694;51.748;14.326;2023-03-23T11:29:41;24.20;43.40
51613;DHT22;37694;51.748;14.326;2023-03-23T11:32:11;24.20;43.10
51613;DHT22;37694;51.748;14.326;2023-03-23T11:34:45;24.20;42.60
51613;DHT22;37694;51.748;14.326;2023-03-23T11:39:53;24.20;42.90
51613;DHT22;37694;51.748;14.326;2023-03-23T11:42:21;24.30;42.90
51613;DHT22;37694;51.748;14.326;2023-03-23T11:44:47;24.30;42.80
51613;DHT22;37694;51.748;14.326;2023-03-23T11:47:36;24.20;42.60
51613;DHT22;37694;51.748;14.326;2023-03-23T11:52:57;24.30;42.30
51613;DHT22;37694;51.748;14.326;2023-03-23T11:58:16;24.30;42.20
51613;DHT22;37694;51.748;14.326;2023-03-23T12:01:09;24.30;42.20
51613;DHT22;37694;51.748;14.326;2023-03-23T12:03:58;24.30;42.10
51613;DHT22;37694;51.748;14.326;2023-03-23T12:06:28;24.30;42.30
51613;DHT22;37694;51.748;14.326;2023-03-23T12:31:00;24.30;42.10
51613;DHT22;37694;51.748;14.326;2023-03-23T12:44:13;24.20;41.80
51613;DHT22;37694;51.748;14.326;2023-03-23T12:49:56;24.30;41.60
51613;DHT22;37694;51.748;14.326;2023-03-23T12:57:45;24.30;41.70
51613;DHT22;37694;51.748;14.326;2023-03-23T13:00:23;24.30;41.60
51613;DHT22;37694;51.748;14.326;2023-03-23T13:08:02;24.30;41.40
51613;DHT22;37694;51.748;14.326;2023-03-23T13:10:34;24.30;41.40
51613;DHT22;37694;51.748;14.326;2023-03-23T13:13:01;24.30;41.40
51613;DHT22;37694;51.748;14.326;2023-03-23T13:15:40;24.30;41.40
51613;DHT22;37694;51.748;14.326;2023-03-23T13:18:24;24.30;41.30
51613;DHT22;37694;51.748;14.326;2023-03-23T13:24:08;24.30;41.20
51613;DHT22;37694;51.748;14.326;2023-03-23T13:26:40;24.30;41.30
51613;DHT22;37694;51.748;14.326;2023-03-23T13:29:16;24.30;41.40
51613;DHT22;37694;51.748;14.326;2023-03-23T13:31:47;24.30;41.30
51613;DHT22;37694;51.748;14.326;2023-03-23T13:34:24;24.30;41.40
51613;DHT22;37694;51.748;14.326;2023-03-23T13:39:37;24.30;41.30
51613;DHT22;37694;51.748;14.326;2023-03-23T14:03:32;24.20;41.30
51613;DHT22;37694;51.748;14.326;2023-03-23T14:11:13;24.20;41.20
51613;DHT22;37694;51.748;14.326;2023-03-23T14:16:16;24.20;41.30
51613;DHT22;37694;51.748;14.326;2023-03-23T14:18:48;24.20;41.40
51613;DHT22;37694;51.748;14.326;2023-03-23T14:21:21;24.10;41.40
51613;DHT22;37694;51.748;14.326;2023-03-23T14:23:47;24.10;41.50
51613;DHT22;37694;51.748;14.326;2023-03-23T14:26:19;24.20;41.50
51613;DHT22;37694;51.748;14.326;2023-03-23T14:28:49;24.20;41.50
51613;DHT22;37694;51.748;14.326;2023-03-23T14:31:26;24.20;41.40
51613;DHT22;37694;51.748;14.326;2023-03-23T14:33:54;24.20;41.40
51613;DHT22;37694;51.748;14.326;2023-03-23T14:36:30;24.20;41.40
51613;DHT22;37694;51.748;14.326;2023-03-23T14:39:04;24.20;41.30
51613;DHT22;37694;51.748;14.326;2023-03-23T14:41:32;24.20;41.30
51613;DHT22;37694;51.748;14.326;2023-03-23T14:44:00;24.20;41.40
51613;DHT22;37694;51.748;14.326;2023-03-23T14:46:27;24.20;41.40
51613;DHT22;37694;51.748;14.326;2023-03-23T14:48:54;24.20;41.40
51613;DHT22;37694;51.748;14.326;2023-03-23T14:51:21;24.20;41.30
51613;DHT22;37694;51.748;14.326;2023-03-23T14:53:47;24.20;41.40
51613;DHT22;37694;51.748;14.326;2023-03-23T14:56:18;24.20;41.40
51613;DHT22;37694;51.748;14.326;2023-03-23T14:58:50;24.20;41.30
51613;DHT22;37694;51.748;14.326;2023-03-23T15:01:23;24.20;41.40
51613;DHT22;37694;51.748;14.326;2023-03-23T15:04:04;24.20;41.30
51613;DHT22;37694;51.748;14.326;2023-03-23T15:06:34;24.30;41.40
51613;DHT22;37694;51.748;14.326;2023-03-23T15:09:07;24.20;41.40
51613;DHT22;37694;51.748;14.326;2023-03-23T15:11:37;24.20;41.30
51613;DHT22;37694;51.748;14.326;2023-03-23T15:14:32;24.20;41.30
51613;DHT22;37694;51.748;14.326;2023-03-23T15:17:00;24.20;41.30
51613;DHT22;37694;51.748;14.326;2023-03-23T15:19:31;24.20;41.40
51613;DHT22;37694;51.748;14.326;2023-03-23T15:22:16;24.20;41.30
51613;DHT22;37694;51.748;14.326;2023-03-23T15:24:43;24.20;41.20
51613;DHT22;37694;51.748;14.326;2023-03-23T15:27:33;24.20;41.40
51613;DHT22;37694;51.748;14.326;2023-03-23T15:30:11;24.20;41.10
51613;DHT22;37694;51.748;14.326;2023-03-23T15:32:41;24.10;41.20
51613;DHT22;37694;51.748;14.326;2023-03-23T15:35:35;24.10;41.30
51613;DHT22;37694;51.748;14.326;2023-03-23T15:38:12;24.20;41.30
51613;DHT22;37694;51.748;14.326;2023-03-23T15:40:40;24.10;41.50
51613;DHT22;37694;51.748;14.326;2023-03-23T15:43:20;24.10;41.50
51613;DHT22;37694;51.748;14.326;2023-03-23T15:45:58;24.10;41.50
51613;DHT22;37694;51.748;14.326;2023-03-23T15:48:30;24.10;41.40
51613;DHT22;37694;51.748;14.326;2023-03-23T15:50:57;24.10;41.30
51613;DHT22;37694;51.748;14.326;2023-03-23T15:53:27;24.10;41.20
51613;DHT22;37694;51.748;14.326;2023-03-23T15:55:53;24.10;41.10
51613;DHT22;37694;51.748;14.326;2023-03-23T15:58:19;24.10;40.90
51613;DHT22;37694;51.748;14.326;2023-03-23T16:00:46;24.10;40.90
51613;DHT22;37694;51.748;14.326;2023-03-23T16:03:22;24.10;40.80
51613;DHT22;37694;51.748;14.326;2023-03-23T16:05:50;24.10;40.80
51613;DHT22;37694;51.748;14.326;2023-03-23T16:08:15;24.10;41.10
51613;DHT22;37694;51.748;14.326;2023-03-23T16:10:42;24.10;41.20
51613;DHT22;37694;51.748;14.326;2023-03-23T16:13:08;24.10;41.20
51613;DHT22;37694;51.748;14.326;2023-03-23T16:15:33;24.20;41.30
51613;DHT22;37694;51.748;14.326;2023-03-23T16:17:59;24.20;41.40
51613;DHT22;37694;51.748;14.326;2023-03-23T16:20:27;24.10;41.30
51613;DHT22;37694;51.748;14.326;2023-03-23T16:22:53;24.10;41.30
51613;DHT22;37694;51.748;14.326;2023-03-23T16:25:19;24.10;41.30
51613;DHT22;37694;51.748;14.326;2023-03-23T16:27:45;24.10;41.30
51613;DHT22;37694;51.748;14.326;2023-03-23T16:30:19;24.10;41.20
51613;DHT22;37694;51.748;14.326;2023-03-23T16:32:45;24.10;41.10
51613;DHT22;37694;51.748;14.326;2023-03-23T16:35:14;24.10;41.20
51613;DHT22;37694;51.748;14.326;2023-03-23T16:37:48;24.10;41.20
51613;DHT22;37694;51.748;14.326;2023-03-23T16:40:16;24.10;41.10
51613;DHT22;37694;51.748;14.326;2023-03-23T16:42:42;24.10;41.20
51613;DHT22;37694;51.748;14.326;2023-03-23T16:45:09;24.10;41.20
51613;DHT22;37694;51.748;14.326;2023-03-23T16:47:35;24.10;41.20
51613;DHT22;37694;51.748;14.326;2023-03-23T16:50:01;24.10;41.40
51613;DHT22;37694;51.748;14.326;2023-03-23T16:52:26;24.20;41.50
51613;DHT22;37694;51.748;14.326;2023-03-23T16:54:52;24.10;41.40
51613;DHT22;37694;51.748;14.326;2023-03-23T16:57:18;24.20;41.50
51613;DHT22;37694;51.748;14.326;2023-03-23T16:59:44;24.20;41.70
51613;DHT22;37694;51.748;14.326;2023-03-23T17:02:11;24.20;41.50
51613;DHT22;37694;51.748;14.326;2023-03-23T17:04:37;24.20;41.70
51613;DHT22;37694;51.748;14.326;2023-03-23T17:07:06;24.20;41.70
51613;DHT22;37694;51.748;14.326;2023-03-23T17:09:32;24.20;41.60
51613;DHT22;37694;51.748;14.326;2023-03-23T17:11:58;24.20;41.60
51613;DHT22;37694;51.748;14.326;2023-03-23T17:14:23;24.20;41.40
51613;DHT22;37694;51.748;14.326;2023-03-23T17:16:49;24.20;41.50
51613;DHT22;37694;51.748;14.326;2023-03-23T17:19:15;24.20;41.50
51613;DHT22;37694;51.748;14.326;2023-03-23T17:21:41;24.20;41.40
51613;DHT22;37694;51.748;14.326;2023-03-23T17:24:07;24.20;41.20
51613;DHT22;37694;51.748;14.326;2023-03-23T17:26:33;24.20;41.20
51613;DHT22;37694;51.748;14.326;2023-03-23T17:28:59;24.20;41.20
51613;DHT22;37694;51.748;14.326;2023-03-23T17:31:24;24.20;41.10
51613;DHT22;37694;51.748;14.326;2023-03-23T17:33:50;24.20;41.00
51613;DHT22;37694;51.748;14.326;2023-03-23T17:36:17;24.20;41.00
51613;DHT22;37694;51.748;14.326;2023-03-23T17:38:43;24.10;41.00
51613;DHT22;37694;51.748;14.326;2023-03-23T17:41:09;24.20;41.10
51613;DHT22;37694;51.748;14.326;2023-03-23T17:43:36;24.10;41.00
51613;DHT22;37694;51.748;14.326;2023-03-23T17:46:05;24.10;41.10
51613;DHT22;37694;51.748;14.326;2023-03-23T17:48:31;24.10;41.00
51613;DHT22;37694;51.748;14.326;2023-03-23T17:50:57;24.10;41.10
51613;DHT22;37694;51.748;14.326;2023-03-23T17:53:24;24.10;41.30